< < Back
Terminal Aerodrome Forecast


Current Version              Previous Versions:   1  2  3  4  5  6  7  8  9  

Terminal Aerodrome Forecast

931
FTUS42 KMLB 280500
TAFDAB
TAF
KDAB 280539Z 2806/2906 24005KT P6SM FEW030 SCT250
     FM281500 26011KT P6SM SCT035 SCT250
     FM290100 26006KT P6SM FEW040 SCT250=

Latest METAR

361
SAUS80 KWBC 280600 RRD
MTRDAB
METAR KDAB 280553Z 21006KT 10SM CLR 26/24 A3003 RMK AO2 SLP166 T02610239
10306 20261 58008 $


USA.gov is the U.S. government's official web portal to all federal, state and local government web resources and services.